createdAt,value
2023-06-11T00:01:17.473Z,17.60
2023-06-11T00:05:19.256Z,17.50
2023-06-11T00:09:22.974Z,17.40
2023-06-11T00:13:24.775Z,17.40
2023-06-11T00:17:26.625Z,17.30
2023-06-11T00:21:30.086Z,17.30
2023-06-11T00:25:33.479Z,17.20
2023-06-11T00:29:35.365Z,17.10
2023-06-11T00:33:37.150Z,17.10
2023-06-11T00:37:39.245Z,17.00
2023-06-11T00:41:46.917Z,17.00
2023-06-11T00:45:51.826Z,16.90
2023-06-11T00:49:53.670Z,16.80
2023-06-11T00:58:45.680Z,16.60
2023-06-11T01:02:58.633Z,16.50
2023-06-11T01:07:01.664Z,16.50
2023-06-11T01:11:05.056Z,16.40
2023-06-11T01:15:07.520Z,16.30
2023-06-11T01:19:32.131Z,16.20
2023-06-11T01:23:44.861Z,16.20
2023-06-11T01:28:05.034Z,16.10
2023-06-11T01:32:06.960Z,16.00
2023-06-11T01:36:11.936Z,15.90
2023-06-11T01:40:17.062Z,15.80
2023-06-11T01:44:21.233Z,15.70
2023-06-11T01:48:23.199Z,15.70
2023-06-11T01:52:25.770Z,15.60
2023-06-11T01:56:28.256Z,15.60
2023-06-11T02:00:30.502Z,15.60
2023-06-11T02:04:41.515Z,15.50
2023-06-11T02:08:50.508Z,15.40
2023-06-11T02:12:59.214Z,15.40
2023-06-11T02:17:07.523Z,15.30
2023-06-11T02:21:15.520Z,15.20
2023-06-11T02:25:26.557Z,15.20
2023-06-11T02:29:28.346Z,15.10
2023-06-11T02:33:30.115Z,15.00
2023-06-11T02:37:31.917Z,14.90
2023-06-11T02:41:34.676Z,14.90
2023-06-11T02:45:37.111Z,14.90
2023-06-11T02:49:39.030Z,14.90
2023-06-11T02:53:41.082Z,14.90
2023-06-11T02:57:44.374Z,14.90
2023-06-11T03:01:46.605Z,14.90
2023-06-11T03:05:48.594Z,15.00
2023-06-11T03:09:50.556Z,15.40
2023-06-11T03:13:52.404Z,15.90
2023-06-11T03:17:54.108Z,16.40
2023-06-11T03:21:55.854Z,17.10
2023-06-11T03:25:57.606Z,17.80
2023-06-11T03:30:01.757Z,18.70
2023-06-11T03:34:04.508Z,19.70
2023-06-11T03:38:06.324Z,20.40
2023-06-11T03:42:08.270Z,21.20
2023-06-11T03:46:10.065Z,22.10
2023-06-11T03:50:12.040Z,23.00
2023-06-11T03:54:13.809Z,23.60
2023-06-11T03:58:15.708Z,24.40
2023-06-11T04:02:17.725Z,25.00
2023-06-11T04:06:19.661Z,25.80
2023-06-11T04:10:24.340Z,26.20
2023-06-11T04:14:26.331Z,26.70
2023-06-11T04:18:28.508Z,27.00
2023-06-11T04:22:30.368Z,25.60
2023-06-11T04:26:32.946Z,26.80
2023-06-11T04:30:35.204Z,27.80
2023-06-11T04:34:40.950Z,28.10
2023-06-11T04:38:47.896Z,28.40
2023-06-11T04:42:49.814Z,28.40
2023-06-11T04:47:12.246Z,28.70
2023-06-11T04:51:17.774Z,28.30
2023-06-11T04:55:24.295Z,28.10
2023-06-11T05:04:41.222Z,28.80
2023-06-11T05:08:43.249Z,29.50
2023-06-11T05:12:44.987Z,29.70
2023-06-11T05:16:47.115Z,30.10
2023-06-11T05:20:52.159Z,30.00
2023-06-11T05:24:54.058Z,30.20
2023-06-11T05:28:56.010Z,30.70
2023-06-11T05:32:58.926Z,30.30
2023-06-11T05:37:00.865Z,29.90
2023-06-11T05:41:03.762Z,30.50
2023-06-11T05:45:07.317Z,31.80
2023-06-11T05:49:11.849Z,31.80
2023-06-11T05:53:14.135Z,30.70
2023-06-11T05:57:28.783Z,32.20
2023-06-11T06:02:06.595Z,31.90
2023-06-11T06:06:10.229Z,31.90
2023-06-11T06:10:15.136Z,31.60
2023-06-11T06:14:17.056Z,32.50
2023-06-11T06:18:21.291Z,33.50
2023-06-11T06:22:23.130Z,33.20
2023-06-11T06:26:27.226Z,32.70
2023-06-11T06:30:29.148Z,31.60
2023-06-11T06:34:31.055Z,32.40
2023-06-11T06:38:33.995Z,32.30
2023-06-11T06:42:36.109Z,32.80
2023-06-11T06:46:39.791Z,33.00
2023-06-11T06:50:42.115Z,33.00
2023-06-11T06:54:44.492Z,31.90
2023-06-11T06:58:46.229Z,33.00
2023-06-11T07:03:03.054Z,33.70
2023-06-11T07:07:23.151Z,34.10
2023-06-11T07:11:27.511Z,33.80
2023-06-11T07:15:35.227Z,32.60
2023-06-11T07:19:38.425Z,34.00
2023-06-11T07:23:48.003Z,33.90
2023-06-11T07:27:49.777Z,33.50
2023-06-11T07:31:51.713Z,32.20
2023-06-11T07:35:55.682Z,31.30
2023-06-11T07:39:57.960Z,33.00
2023-06-11T07:44:02.704Z,33.00
2023-06-11T07:48:08.961Z,33.00
2023-06-11T07:52:20.141Z,33.50
2023-06-11T07:56:29.194Z,32.60
2023-06-11T08:00:31.423Z,32.90
2023-06-11T08:04:39.067Z,33.60
2023-06-11T08:08:43.586Z,34.40
2023-06-11T08:12:47.088Z,35.10
2023-06-11T08:16:52.629Z,34.60
2023-06-11T08:21:08.323Z,35.30
2023-06-11T08:25:11.605Z,35.40
2023-06-11T08:29:33.669Z,34.50
2023-06-11T08:33:38.370Z,35.00
2023-06-11T08:37:40.798Z,35.10
2023-06-11T08:42:12.922Z,34.90
2023-06-11T08:46:16.185Z,33.80
2023-06-11T08:50:22.119Z,34.40
2023-06-11T08:54:26.655Z,35.40
2023-06-11T08:58:36.585Z,34.90
2023-06-11T09:02:44.506Z,35.60
2023-06-11T09:07:04.938Z,34.70
2023-06-11T09:11:07.347Z,34.00
2023-06-11T09:15:17.809Z,32.40
2023-06-11T09:19:22.433Z,31.20
2023-06-11T09:23:35.803Z,31.10
2023-06-11T09:27:38.519Z,30.00
2023-06-11T09:31:46.800Z,29.40
2023-06-11T09:35:53.572Z,29.10
2023-06-11T09:40:18.767Z,29.50
2023-06-11T09:44:34.771Z,30.40
2023-06-11T09:48:37.128Z,29.90
2023-06-11T09:52:39.822Z,29.00
2023-06-11T09:56:52.962Z,28.20
2023-06-11T10:01:04.209Z,28.70
2023-06-11T10:05:08.745Z,28.00
2023-06-11T10:09:45.121Z,27.90
2023-06-11T10:14:01.992Z,27.70
2023-06-11T10:18:33.848Z,27.10
2023-06-11T10:22:47.255Z,27.80
2023-06-11T10:27:35.693Z,27.40
2023-06-11T10:31:46.167Z,27.10
2023-06-11T10:35:51.269Z,27.40
2023-06-11T10:39:56.088Z,27.50
2023-06-11T10:43:59.230Z,27.80
2023-06-11T10:48:07.528Z,27.70
2023-06-11T10:52:16.219Z,27.70
2023-06-11T10:56:20.614Z,28.10
2023-06-11T11:00:23.251Z,27.70
2023-06-11T11:04:25.245Z,27.50
2023-06-11T11:08:28.019Z,27.50
2023-06-11T11:12:44.116Z,26.70
2023-06-11T11:16:49.409Z,27.20
2023-06-11T11:20:55.063Z,28.00
2023-06-11T11:25:09.723Z,27.90
2023-06-11T11:29:11.714Z,27.20
2023-06-11T11:33:13.746Z,27.60
2023-06-11T11:37:16.395Z,27.60
2023-06-11T11:41:22.240Z,27.70
2023-06-11T11:45:31.258Z,27.20
2023-06-11T11:49:35.638Z,27.10
2023-06-11T11:53:37.611Z,27.40
2023-06-11T11:57:40.620Z,27.50
2023-06-11T12:01:58.683Z,27.50
2023-06-11T12:06:02.241Z,27.40
2023-06-11T12:10:07.356Z,26.80
2023-06-11T12:14:09.232Z,26.90
2023-06-11T12:18:11.041Z,26.90
2023-06-11T12:22:12.839Z,27.10
2023-06-11T12:26:14.691Z,27.60
2023-06-11T12:30:22.651Z,27.50
2023-06-11T12:34:25.033Z,27.80
2023-06-11T12:38:26.922Z,28.30
2023-06-11T12:42:29.045Z,27.90
2023-06-11T12:46:34.914Z,28.10
2023-06-11T12:50:36.870Z,28.30
2023-06-11T12:54:39.078Z,28.40
2023-06-11T12:58:40.981Z,28.10
2023-06-11T13:02:46.026Z,27.80
2023-06-11T13:06:48.011Z,27.10
2023-06-11T13:10:50.606Z,27.60
2023-06-11T13:14:52.938Z,28.10
2023-06-11T13:18:55.593Z,28.00
2023-06-11T13:23:00.131Z,28.30
2023-06-11T13:27:01.887Z,27.90
2023-06-11T13:31:06.154Z,27.90
2023-06-11T13:35:08.355Z,28.00
2023-06-11T13:39:10.564Z,28.10
2023-06-11T13:43:12.886Z,27.90
2023-06-11T13:47:14.812Z,28.00
2023-06-11T13:51:16.684Z,28.10
2023-06-11T13:55:18.557Z,28.50
2023-06-11T13:59:20.862Z,28.20
2023-06-11T14:03:23.013Z,27.90
2023-06-11T14:07:27.900Z,27.70
2023-06-11T14:11:29.809Z,27.60
2023-06-11T14:15:31.680Z,27.70
2023-06-11T14:19:33.874Z,27.40
2023-06-11T14:23:36.588Z,27.70
2023-06-11T14:27:38.703Z,27.90
2023-06-11T14:31:40.919Z,27.70
2023-06-11T14:35:43.157Z,27.70
2023-06-11T14:39:46.691Z,27.70
2023-06-11T14:43:48.587Z,27.80
2023-06-11T14:47:50.968Z,27.50
2023-06-11T14:51:52.899Z,27.80
2023-06-11T14:55:54.738Z,27.60
2023-06-11T14:59:56.528Z,28.00
2023-06-11T15:04:01.081Z,27.80
2023-06-11T15:08:03.031Z,27.60
2023-06-11T15:12:06.207Z,27.50
2023-06-11T15:16:08.133Z,27.10
2023-06-11T15:20:11.024Z,27.20
2023-06-11T15:24:13.593Z,27.30
2023-06-11T15:28:16.405Z,27.30
2023-06-11T15:32:28.522Z,26.90
2023-06-11T15:36:30.443Z,27.30
2023-06-11T15:40:32.926Z,27.30
2023-06-11T15:44:34.920Z,27.40
2023-06-11T15:48:36.845Z,27.40
2023-06-11T15:52:38.798Z,27.20
2023-06-11T15:56:43.702Z,27.20
2023-06-11T16:00:45.994Z,27.20
2023-06-11T16:04:55.257Z,27.20
2023-06-11T16:08:57.257Z,27.00
2023-06-11T16:12:58.998Z,27.00
2023-06-11T16:17:01.727Z,27.00
2023-06-11T16:21:04.238Z,26.80
2023-06-11T16:25:09.083Z,27.00
2023-06-11T16:29:11.078Z,27.00
2023-06-11T16:33:13.197Z,27.00
2023-06-11T16:37:15.001Z,27.00
2023-06-11T16:41:18.154Z,26.60
2023-06-11T16:45:19.966Z,26.70
2023-06-11T16:49:21.889Z,26.50
2023-06-11T16:53:27.165Z,26.40
2023-06-11T16:57:30.000Z,26.30
2023-06-11T17:01:32.214Z,26.30
2023-06-11T17:05:34.396Z,26.30
2023-06-11T17:14:34.314Z,26.10
2023-06-11T17:23:52.480Z,25.90
2023-06-11T17:32:57.101Z,25.80
2023-06-11T17:37:03.997Z,25.60
2023-06-11T17:41:28.923Z,25.40
2023-06-11T17:45:30.885Z,25.40
2023-06-11T17:49:38.986Z,25.40
2023-06-11T17:53:41.715Z,25.50
2023-06-11T17:57:44.398Z,25.40
2023-06-11T18:01:46.488Z,25.40
2023-06-11T18:06:02.260Z,25.30
2023-06-11T18:10:41.733Z,25.20
2023-06-11T18:15:33.057Z,25.10
2023-06-11T18:19:59.209Z,25.00
2023-06-11T18:26:40.087Z,24.90
2023-06-11T18:35:13.268Z,24.60
2023-06-11T18:40:06.177Z,24.40
2023-06-11T19:01:23.399Z,23.90
2023-06-11T19:17:29.699Z,23.50
2023-06-11T19:26:28.509Z,23.20
2023-06-11T19:30:46.689Z,23.00
2023-06-11T19:45:37.577Z,22.70
2023-06-11T19:49:52.568Z,22.50
2023-06-11T20:08:50.140Z,22.00
2023-06-11T20:12:53.337Z,21.90
2023-06-11T20:17:15.348Z,21.80
2023-06-11T20:21:17.424Z,21.70
2023-06-11T20:25:30.048Z,21.60
2023-06-11T20:29:36.050Z,21.50
2023-06-11T20:33:40.001Z,21.40
2023-06-11T20:37:41.906Z,21.20
2023-06-11T20:41:43.803Z,21.10
2023-06-11T20:45:57.457Z,20.90
2023-06-11T20:50:00.181Z,20.80
2023-06-11T20:54:01.950Z,20.60
2023-06-11T20:58:03.863Z,20.40
2023-06-11T21:02:07.273Z,20.40
2023-06-11T21:06:09.026Z,20.30
2023-06-11T21:10:11.245Z,20.20
2023-06-11T21:14:15.013Z,20.10
2023-06-11T21:18:17.010Z,20.00
2023-06-11T21:22:18.882Z,19.90
2023-06-11T21:26:25.967Z,19.80
2023-06-11T21:30:27.902Z,19.70
2023-06-11T21:34:29.893Z,19.60
2023-06-11T21:38:33.824Z,19.60
2023-06-11T21:42:35.604Z,19.50
2023-06-11T21:46:37.337Z,19.40
2023-06-11T21:50:39.232Z,19.40
2023-06-11T21:54:41.125Z,19.30
2023-06-11T21:58:42.896Z,19.20
2023-06-11T22:02:44.821Z,19.10
2023-06-11T22:06:46.630Z,19.10
2023-06-11T22:10:50.238Z,19.00
2023-06-11T22:14:52.093Z,19.00
2023-06-11T22:18:54.053Z,18.90
2023-06-11T22:22:56.149Z,18.80
2023-06-11T22:27:03.846Z,18.70
2023-06-11T22:31:05.722Z,18.70
2023-06-11T22:35:08.024Z,18.60
2023-06-11T22:39:11.065Z,18.40
2023-06-11T22:43:12.862Z,18.40
2023-06-11T22:47:14.657Z,18.20
2023-06-11T22:51:16.589Z,18.10
2023-06-11T22:55:18.498Z,18.00
2023-06-11T22:59:20.885Z,17.90
2023-06-11T23:03:23.923Z,17.90
2023-06-11T23:07:26.234Z,17.80
2023-06-11T23:11:28.009Z,17.80
2023-06-11T23:15:29.849Z,17.60
2023-06-11T23:19:33.567Z,17.50
2023-06-11T23:23:38.731Z,17.40
2023-06-11T23:27:44.401Z,17.30
2023-06-11T23:31:46.294Z,17.30
2023-06-11T23:35:48.059Z,17.20
2023-06-11T23:39:49.871Z,17.10
2023-06-11T23:43:51.616Z,17.10
2023-06-11T23:47:53.386Z,17.10
2023-06-11T23:51:56.287Z,17.10
2023-06-11T23:55:58.331Z,17.00
